sensor_id;sensor_type;location;lat;lon;timestamp;temperature;humidity
4910;DHT22;2470;49.868;8.660;2023-08-07T00:00:57;14.40;99.90
4910;DHT22;2470;49.868;8.660;2023-08-07T00:03:22;14.40;99.90
4910;DHT22;2470;49.868;8.660;2023-08-07T00:05:48;14.30;99.90
4910;DHT22;2470;49.868;8.660;2023-08-07T00:08:14;14.40;99.90
4910;DHT22;2470;49.868;8.660;2023-08-07T00:10:40;14.40;99.90
4910;DHT22;2470;49.868;8.660;2023-08-07T00:13:06;14.40;99.90
4910;DHT22;2470;49.868;8.660;2023-08-07T00:15:31;14.40;99.90
4910;DHT22;2470;49.868;8.660;2023-08-07T00:17:58;14.40;99.90
4910;DHT22;2470;49.868;8.660;2023-08-07T00:20:24;14.40;99.90
4910;DHT22;2470;49.868;8.660;2023-08-07T00:22:50;14.40;99.90
4910;DHT22;2470;49.868;8.660;2023-08-07T00:25:15;14.40;99.90
4910;DHT22;2470;49.868;8.660;2023-08-07T00:27:41;14.40;99.90
4910;DHT22;2470;49.868;8.660;2023-08-07T00:30:07;14.40;99.90
4910;DHT22;2470;49.868;8.660;2023-08-07T00:32:32;14.40;99.90
4910;DHT22;2470;49.868;8.660;2023-08-07T00:34:58;14.30;99.90
4910;DHT22;2470;49.868;8.660;2023-08-07T00:37:23;14.30;99.90
4910;DHT22;2470;49.868;8.660;2023-08-07T00:39:49;14.30;99.90
4910;DHT22;2470;49.868;8.660;2023-08-07T00:42:14;14.30;99.90
4910;DHT22;2470;49.868;8.660;2023-08-07T00:44:40;14.30;99.90
4910;DHT22;2470;49.868;8.660;2023-08-07T00:47:06;14.40;99.90
4910;DHT22;2470;49.868;8.660;2023-08-07T00:49:32;14.30;99.90
4910;DHT22;2470;49.868;8.660;2023-08-07T00:51:58;14.30;99.90
4910;DHT22;2470;49.868;8.660;2023-08-07T00:54:25;14.20;99.90
4910;DHT22;2470;49.868;8.660;2023-08-07T00:56:50;14.30;99.90
4910;DHT22;2470;49.868;8.660;2023-08-07T00:59:16;14.30;99.90
4910;DHT22;2470;49.868;8.660;2023-08-07T01:01:42;14.30;99.90
4910;DHT22;2470;49.868;8.660;2023-08-07T01:04:08;14.30;99.90
4910;DHT22;2470;49.868;8.660;2023-08-07T01:06:34;14.30;99.90
4910;DHT22;2470;49.868;8.660;2023-08-07T01:08:59;14.30;99.90
4910;DHT22;2470;49.868;8.660;2023-08-07T01:16:50;14.20;99.90
4910;DHT22;2470;49.868;8.660;2023-08-07T01:19:27;14.20;99.90
4910;DHT22;2470;49.868;8.660;2023-08-07T01:22:16;14.20;99.90
4910;DHT22;2470;49.868;8.660;2023-08-07T01:24:46;14.20;99.90
4910;DHT22;2470;49.868;8.660;2023-08-07T01:32:45;14.20;99.90
4910;DHT22;2470;49.868;8.660;2023-08-07T01:35:14;14.20;99.90
4910;DHT22;2470;49.868;8.660;2023-08-07T01:37:43;14.20;99.90
4910;DHT22;2470;49.868;8.660;2023-08-07T01:40:10;14.20;99.90
4910;DHT22;2470;49.868;8.660;2023-08-07T01:42:36;14.20;99.90
4910;DHT22;2470;49.868;8.660;2023-08-07T01:45:04;14.20;99.90
4910;DHT22;2470;49.868;8.660;2023-08-07T01:47:30;14.20;99.90
4910;DHT22;2470;49.868;8.660;2023-08-07T01:49:55;14.20;99.90
4910;DHT22;2470;49.868;8.660;2023-08-07T01:52:21;14.20;99.90
4910;DHT22;2470;49.868;8.660;2023-08-07T01:54:46;14.20;99.90
4910;DHT22;2470;49.868;8.660;2023-08-07T01:57:12;14.10;99.90
4910;DHT22;2470;49.868;8.660;2023-08-07T01:59:37;14.10;99.90
4910;DHT22;2470;49.868;8.660;2023-08-07T02:02:03;14.10;99.90
4910;DHT22;2470;49.868;8.660;2023-08-07T02:04:29;14.10;99.90
4910;DHT22;2470;49.868;8.660;2023-08-07T02:06:54;14.20;99.90
4910;DHT22;2470;49.868;8.660;2023-08-07T02:09:20;14.20;99.90
4910;DHT22;2470;49.868;8.660;2023-08-07T02:11:46;14.10;99.90
4910;DHT22;2470;49.868;8.660;2023-08-07T02:14:11;14.20;99.90
4910;DHT22;2470;49.868;8.660;2023-08-07T02:16:37;14.20;99.90
4910;DHT22;2470;49.868;8.660;2023-08-07T02:19:02;14.20;99.90
4910;DHT22;2470;49.868;8.660;2023-08-07T02:21:28;14.20;99.90
4910;DHT22;2470;49.868;8.660;2023-08-07T02:23:53;14.20;99.90
4910;DHT22;2470;49.868;8.660;2023-08-07T02:26:19;14.20;99.90
4910;DHT22;2470;49.868;8.660;2023-08-07T02:28:44;14.20;99.90
4910;DHT22;2470;49.868;8.660;2023-08-07T02:31:10;14.20;99.90
4910;DHT22;2470;49.868;8.660;2023-08-07T02:33:35;14.20;99.90
4910;DHT22;2470;49.868;8.660;2023-08-07T02:36:01;14.20;99.90
4910;DHT22;2470;49.868;8.660;2023-08-07T02:38:26;14.30;99.90
4910;DHT22;2470;49.868;8.660;2023-08-07T02:40:52;14.30;99.90
4910;DHT22;2470;49.868;8.660;2023-08-07T02:43:17;14.20;99.90
4910;DHT22;2470;49.868;8.660;2023-08-07T02:45:43;14.20;99.90
4910;DHT22;2470;49.868;8.660;2023-08-07T02:48:08;14.20;99.90
4910;DHT22;2470;49.868;8.660;2023-08-07T02:50:35;14.30;99.90
4910;DHT22;2470;49.868;8.660;2023-08-07T02:53:01;14.20;99.90
4910;DHT22;2470;49.868;8.660;2023-08-07T02:55:27;14.20;99.90
4910;DHT22;2470;49.868;8.660;2023-08-07T02:57:52;14.20;99.90
4910;DHT22;2470;49.868;8.660;2023-08-07T03:00:18;14.20;99.90
4910;DHT22;2470;49.868;8.660;2023-08-07T03:02:43;14.20;99.90
4910;DHT22;2470;49.868;8.660;2023-08-07T03:05:09;14.20;99.90
4910;DHT22;2470;49.868;8.660;2023-08-07T03:07:34;14.30;99.90
4910;DHT22;2470;49.868;8.660;2023-08-07T03:10:00;14.30;99.90
4910;DHT22;2470;49.868;8.660;2023-08-07T03:12:25;14.30;99.90
4910;DHT22;2470;49.868;8.660;2023-08-07T03:14:51;14.30;99.90
4910;DHT22;2470;49.868;8.660;2023-08-07T03:17:16;14.30;99.90
4910;DHT22;2470;49.868;8.660;2023-08-07T03:19:43;14.30;99.90
4910;DHT22;2470;49.868;8.660;2023-08-07T03:22:09;14.30;99.90
4910;DHT22;2470;49.868;8.660;2023-08-07T03:24:34;14.30;99.90
4910;DHT22;2470;49.868;8.660;2023-08-07T03:27:00;14.30;99.90
4910;DHT22;2470;49.868;8.660;2023-08-07T03:29:25;14.20;99.90
4910;DHT22;2470;49.868;8.660;2023-08-07T03:31:51;14.30;99.90
4910;DHT22;2470;49.868;8.660;2023-08-07T03:34:17;14.30;99.90
4910;DHT22;2470;49.868;8.660;2023-08-07T03:36:42;14.30;99.90
4910;DHT22;2470;49.868;8.660;2023-08-07T03:39:08;14.30;99.90
4910;DHT22;2470;49.868;8.660;2023-08-07T03:41:35;14.30;99.90
4910;DHT22;2470;49.868;8.660;2023-08-07T03:44:01;14.30;99.90
4910;DHT22;2470;49.868;8.660;2023-08-07T03:46:26;14.30;99.90
4910;DHT22;2470;49.868;8.660;2023-08-07T03:48:52;14.30;99.90
4910;DHT22;2470;49.868;8.660;2023-08-07T03:51:17;14.30;99.90
4910;DHT22;2470;49.868;8.660;2023-08-07T03:53:43;14.30;99.90
4910;DHT22;2470;49.868;8.660;2023-08-07T03:56:09;14.30;99.90
4910;DHT22;2470;49.868;8.660;2023-08-07T03:58:34;14.30;99.90
4910;DHT22;2470;49.868;8.660;2023-08-07T04:01:00;14.30;99.90
4910;DHT22;2470;49.868;8.660;2023-08-07T04:03:25;14.30;99.90
4910;DHT22;2470;49.868;8.660;2023-08-07T04:05:54;14.30;99.90
4910;DHT22;2470;49.868;8.660;2023-08-07T04:08:20;14.30;99.90
4910;DHT22;2470;49.868;8.660;2023-08-07T04:10:58;14.30;99.90
4910;DHT22;2470;49.868;8.660;2023-08-07T04:13:24;14.30;99.90
4910;DHT22;2470;49.868;8.660;2023-08-07T04:15:49;14.30;99.90
4910;DHT22;2470;49.868;8.660;2023-08-07T04:18:14;14.30;99.90
4910;DHT22;2470;49.868;8.660;2023-08-07T04:20:40;14.30;99.90
4910;DHT22;2470;49.868;8.660;2023-08-07T04:23:05;14.30;99.90
4910;DHT22;2470;49.868;8.660;2023-08-07T04:25:31;14.40;99.90
4910;DHT22;2470;49.868;8.660;2023-08-07T04:27:56;14.40;99.90
4910;DHT22;2470;49.868;8.660;2023-08-07T04:30:22;14.40;99.90
4910;DHT22;2470;49.868;8.660;2023-08-07T04:32:47;14.40;99.90
4910;DHT22;2470;49.868;8.660;2023-08-07T04:35:14;14.40;99.90
4910;DHT22;2470;49.868;8.660;2023-08-07T04:37:40;14.50;99.90
4910;DHT22;2470;49.868;8.660;2023-08-07T04:40:05;14.50;99.90
4910;DHT22;2470;49.868;8.660;2023-08-07T04:42:33;14.50;99.90
4910;DHT22;2470;49.868;8.660;2023-08-07T04:44:59;14.50;99.90
4910;DHT22;2470;49.868;8.660;2023-08-07T04:47:25;14.40;99.90
4910;DHT22;2470;49.868;8.660;2023-08-07T04:49:50;14.40;99.90
4910;DHT22;2470;49.868;8.660;2023-08-07T04:52:16;14.50;99.90
4910;DHT22;2470;49.868;8.660;2023-08-07T04:54:41;14.50;99.90
4910;DHT22;2470;49.868;8.660;2023-08-07T04:57:07;14.50;99.90
4910;DHT22;2470;49.868;8.660;2023-08-07T04:59:32;14.50;99.90
4910;DHT22;2470;49.868;8.660;2023-08-07T05:01:58;14.50;99.90
4910;DHT22;2470;49.868;8.660;2023-08-07T05:04:23;14.60;99.90
4910;DHT22;2470;49.868;8.660;2023-08-07T05:06:49;14.60;99.90
4910;DHT22;2470;49.868;8.660;2023-08-07T05:09:14;14.60;99.90
4910;DHT22;2470;49.868;8.660;2023-08-07T05:11:40;14.60;99.90
4910;DHT22;2470;49.868;8.660;2023-08-07T05:14:05;14.60;99.90
4910;DHT22;2470;49.868;8.660;2023-08-07T05:16:31;14.50;99.90
4910;DHT22;2470;49.868;8.660;2023-08-07T05:18:56;14.50;99.90
4910;DHT22;2470;49.868;8.660;2023-08-07T05:21:22;14.50;99.90
4910;DHT22;2470;49.868;8.660;2023-08-07T05:23:47;14.50;99.90
4910;DHT22;2470;49.868;8.660;2023-08-07T05:26:13;14.50;99.90
4910;DHT22;2470;49.868;8.660;2023-08-07T05:28:39;14.50;99.90
4910;DHT22;2470;49.868;8.660;2023-08-07T05:31:04;14.60;99.90
4910;DHT22;2470;49.868;8.660;2023-08-07T05:33:30;14.60;99.90
4910;DHT22;2470;49.868;8.660;2023-08-07T05:35:55;14.60;99.90
4910;DHT22;2470;49.868;8.660;2023-08-07T05:38:21;14.60;99.90
4910;DHT22;2470;49.868;8.660;2023-08-07T05:40:46;14.60;99.90
4910;DHT22;2470;49.868;8.660;2023-08-07T05:43:12;14.60;99.90
4910;DHT22;2470;49.868;8.660;2023-08-07T05:45:38;14.60;99.90
4910;DHT22;2470;49.868;8.660;2023-08-07T05:48:03;14.60;99.90
4910;DHT22;2470;49.868;8.660;2023-08-07T05:50:29;14.60;99.90
4910;DHT22;2470;49.868;8.660;2023-08-07T05:52:55;14.70;99.90
4910;DHT22;2470;49.868;8.660;2023-08-07T05:55:20;14.70;99.90
4910;DHT22;2470;49.868;8.660;2023-08-07T05:57:46;14.70;99.90
4910;DHT22;2470;49.868;8.660;2023-08-07T06:00:11;14.60;99.90
4910;DHT22;2470;49.868;8.660;2023-08-07T06:02:43;14.60;99.90
4910;DHT22;2470;49.868;8.660;2023-08-07T06:05:08;14.60;99.90
4910;DHT22;2470;49.868;8.660;2023-08-07T06:07:35;14.60;99.90
4910;DHT22;2470;49.868;8.660;2023-08-07T06:10:00;14.70;99.90
4910;DHT22;2470;49.868;8.660;2023-08-07T06:12:26;14.70;99.90
4910;DHT22;2470;49.868;8.660;2023-08-07T06:14:52;14.80;99.90
4910;DHT22;2470;49.868;8.660;2023-08-07T06:17:18;14.80;99.90
4910;DHT22;2470;49.868;8.660;2023-08-07T06:19:43;14.80;99.90
4910;DHT22;2470;49.868;8.660;2023-08-07T06:22:08;14.80;99.90
4910;DHT22;2470;49.868;8.660;2023-08-07T06:24:34;14.80;99.90
4910;DHT22;2470;49.868;8.660;2023-08-07T06:27:02;14.70;99.90
4910;DHT22;2470;49.868;8.660;2023-08-07T06:29:28;14.80;99.90
4910;DHT22;2470;49.868;8.660;2023-08-07T06:31:53;14.80;99.90
4910;DHT22;2470;49.868;8.660;2023-08-07T06:34:19;14.80;99.90
4910;DHT22;2470;49.868;8.660;2023-08-07T06:36:44;14.80;99.90
4910;DHT22;2470;49.868;8.660;2023-08-07T06:39:10;14.70;99.90
4910;DHT22;2470;49.868;8.660;2023-08-07T06:41:37;14.70;99.90
4910;DHT22;2470;49.868;8.660;2023-08-07T06:44:02;14.70;99.90
4910;DHT22;2470;49.868;8.660;2023-08-07T06:46:28;14.70;99.90
4910;DHT22;2470;49.868;8.660;2023-08-07T06:48:53;14.60;99.90
4910;DHT22;2470;49.868;8.660;2023-08-07T06:51:19;14.70;99.90
4910;DHT22;2470;49.868;8.660;2023-08-07T06:53:45;14.70;99.90
4910;DHT22;2470;49.868;8.660;2023-08-07T06:56:10;14.70;99.90
4910;DHT22;2470;49.868;8.660;2023-08-07T06:58:36;14.60;99.90
4910;DHT22;2470;49.868;8.660;2023-08-07T07:01:01;14.60;99.90
4910;DHT22;2470;49.868;8.660;2023-08-07T07:03:26;14.60;99.90
4910;DHT22;2470;49.868;8.660;2023-08-07T07:05:52;14.60;99.90
4910;DHT22;2470;49.868;8.660;2023-08-07T07:08:17;14.60;99.90
4910;DHT22;2470;49.868;8.660;2023-08-07T07:10:43;14.60;99.90
4910;DHT22;2470;49.868;8.660;2023-08-07T07:13:08;14.60;99.90
4910;DHT22;2470;49.868;8.660;2023-08-07T07:15:35;14.60;99.90
4910;DHT22;2470;49.868;8.660;2023-08-07T07:18:01;14.60;99.90
4910;DHT22;2470;49.868;8.660;2023-08-07T07:20:27;14.60;99.90
4910;DHT22;2470;49.868;8.660;2023-08-07T07:22:52;14.60;99.90
4910;DHT22;2470;49.868;8.660;2023-08-07T07:25:18;14.60;99.90
4910;DHT22;2470;49.868;8.660;2023-08-07T07:27:44;14.60;99.90
4910;DHT22;2470;49.868;8.660;2023-08-07T07:30:09;14.70;99.90
4910;DHT22;2470;49.868;8.660;2023-08-07T07:32:35;14.70;99.90
4910;DHT22;2470;49.868;8.660;2023-08-07T07:35:01;14.70;99.90
4910;DHT22;2470;49.868;8.660;2023-08-07T07:37:26;14.70;99.90
4910;DHT22;2470;49.868;8.660;2023-08-07T07:39:52;14.80;99.90
4910;DHT22;2470;49.868;8.660;2023-08-07T07:42:17;14.80;99.90
4910;DHT22;2470;49.868;8.660;2023-08-07T07:44:43;14.90;99.90
4910;DHT22;2470;49.868;8.660;2023-08-07T07:47:09;14.90;99.90
4910;DHT22;2470;49.868;8.660;2023-08-07T07:49:34;14.90;99.90
4910;DHT22;2470;49.868;8.660;2023-08-07T07:52:00;14.80;99.90
4910;DHT22;2470;49.868;8.660;2023-08-07T07:54:28;14.90;99.90
4910;DHT22;2470;49.868;8.660;2023-08-07T07:56:53;14.90;99.90
4910;DHT22;2470;49.868;8.660;2023-08-07T07:59:19;15.00;99.90
4910;DHT22;2470;49.868;8.660;2023-08-07T08:01:44;15.00;99.90
4910;DHT22;2470;49.868;8.660;2023-08-07T08:04:10;15.00;99.90
4910;DHT22;2470;49.868;8.660;2023-08-07T08:06:36;15.00;99.90
4910;DHT22;2470;49.868;8.660;2023-08-07T08:09:01;15.00;99.90
4910;DHT22;2470;49.868;8.660;2023-08-07T08:11:30;14.90;99.90
4910;DHT22;2470;49.868;8.660;2023-08-07T08:13:55;14.90;99.90
4910;DHT22;2470;49.868;8.660;2023-08-07T08:16:21;14.90;99.90
4910;DHT22;2470;49.868;8.660;2023-08-07T08:18:46;14.90;99.90
4910;DHT22;2470;49.868;8.660;2023-08-07T08:21:12;15.00;99.90
4910;DHT22;2470;49.868;8.660;2023-08-07T08:23:37;15.00;99.90
4910;DHT22;2470;49.868;8.660;2023-08-07T08:26:03;15.10;99.90
4910;DHT22;2470;49.868;8.660;2023-08-07T08:28:29;15.10;99.90
4910;DHT22;2470;49.868;8.660;2023-08-07T08:30:54;15.10;99.90
4910;DHT22;2470;49.868;8.660;2023-08-07T08:33:20;15.10;99.90
4910;DHT22;2470;49.868;8.660;2023-08-07T08:35:45;15.10;99.90
4910;DHT22;2470;49.868;8.660;2023-08-07T08:38:11;15.10;99.90
4910;DHT22;2470;49.868;8.660;2023-08-07T08:40:38;15.00;99.90
4910;DHT22;2470;49.868;8.660;2023-08-07T08:43:05;15.00;99.90
4910;DHT22;2470;49.868;8.660;2023-08-07T08:45:31;15.10;99.90
4910;DHT22;2470;49.868;8.660;2023-08-07T08:48:03;15.10;99.90
4910;DHT22;2470;49.868;8.660;2023-08-07T08:50:29;15.20;99.90
4910;DHT22;2470;49.868;8.660;2023-08-07T08:52:56;15.20;99.90
4910;DHT22;2470;49.868;8.660;2023-08-07T08:55:23;15.20;99.90
4910;DHT22;2470;49.868;8.660;2023-08-07T08:57:49;15.20;99.90
4910;DHT22;2470;49.868;8.660;2023-08-07T09:00:15;15.20;99.90
4910;DHT22;2470;49.868;8.660;2023-08-07T09:02:50;15.20;99.90
4910;DHT22;2470;49.868;8.660;2023-08-07T09:05:18;15.20;99.90
4910;DHT22;2470;49.868;8.660;2023-08-07T09:07:44;15.20;99.90
4910;DHT22;2470;49.868;8.660;2023-08-07T09:10:12;15.20;99.90
4910;DHT22;2470;49.868;8.660;2023-08-07T09:12:41;15.10;99.90
4910;DHT22;2470;49.868;8.660;2023-08-07T09:15:08;15.10;99.90
4910;DHT22;2470;49.868;8.660;2023-08-07T09:17:39;15.10;99.90
4910;DHT22;2470;49.868;8.660;2023-08-07T09:20:06;15.20;99.90
4910;DHT22;2470;49.868;8.660;2023-08-07T09:22:36;15.10;99.90
4910;DHT22;2470;49.868;8.660;2023-08-07T09:25:01;15.20;99.90
4910;DHT22;2470;49.868;8.660;2023-08-07T09:27:27;15.30;99.90
4910;DHT22;2470;49.868;8.660;2023-08-07T09:29:54;15.30;99.90
4910;DHT22;2470;49.868;8.660;2023-08-07T09:32:21;15.30;99.90
4910;DHT22;2470;49.868;8.660;2023-08-07T09:34:50;15.40;99.90
4910;DHT22;2470;49.868;8.660;2023-08-07T09:37:16;15.40;99.90
4910;DHT22;2470;49.868;8.660;2023-08-07T09:39:42;15.50;99.90
4910;DHT22;2470;49.868;8.660;2023-08-07T09:42:14;15.50;99.90
4910;DHT22;2470;49.868;8.660;2023-08-07T09:44:43;15.50;99.90
4910;DHT22;2470;49.868;8.660;2023-08-07T09:47:17;15.50;99.90
4910;DHT22;2470;49.868;8.660;2023-08-07T09:49:44;15.50;99.90
4910;DHT22;2470;49.868;8.660;2023-08-07T09:52:11;15.50;99.90
4910;DHT22;2470;49.868;8.660;2023-08-07T09:54:41;15.50;99.90
4910;DHT22;2470;49.868;8.660;2023-08-07T09:57:07;15.50;99.90
4910;DHT22;2470;49.868;8.660;2023-08-07T09:59:33;15.50;99.90
4910;DHT22;2470;49.868;8.660;2023-08-07T10:02:00;15.50;99.90
4910;DHT22;2470;49.868;8.660;2023-08-07T10:04:27;15.40;99.90
4910;DHT22;2470;49.868;8.660;2023-08-07T10:06:53;15.30;99.90
4910;DHT22;2470;49.868;8.660;2023-08-07T10:09:19;15.30;99.90
4910;DHT22;2470;49.868;8.660;2023-08-07T10:11:46;15.20;99.90
4910;DHT22;2470;49.868;8.660;2023-08-07T10:14:14;15.20;99.90
4910;DHT22;2470;49.868;8.660;2023-08-07T10:16:40;15.10;99.90
4910;DHT22;2470;49.868;8.660;2023-08-07T10:19:07;15.20;99.90
4910;DHT22;2470;49.868;8.660;2023-08-07T10:21:39;15.10;99.90
4910;DHT22;2470;49.868;8.660;2023-08-07T10:24:06;15.10;99.90
4910;DHT22;2470;49.868;8.660;2023-08-07T10:26:37;15.10;99.90
4910;DHT22;2470;49.868;8.660;2023-08-07T10:29:09;15.10;99.90
4910;DHT22;2470;49.868;8.660;2023-08-07T10:31:36;15.20;99.90
4910;DHT22;2470;49.868;8.660;2023-08-07T10:34:04;15.10;99.90
4910;DHT22;2470;49.868;8.660;2023-08-07T10:36:33;15.10;99.90
4910;DHT22;2470;49.868;8.660;2023-08-07T10:39:08;15.00;99.90
4910;DHT22;2470;49.868;8.660;2023-08-07T10:41:45;14.90;99.90
4910;DHT22;2470;49.868;8.660;2023-08-07T10:44:20;15.00;99.90
4910;DHT22;2470;49.868;8.660;2023-08-07T10:49:38;15.00;99.90
4910;DHT22;2470;49.868;8.660;2023-08-07T10:52:11;15.00;99.90
4910;DHT22;2470;49.868;8.660;2023-08-07T10:54:38;15.10;99.90
4910;DHT22;2470;49.868;8.660;2023-08-07T10:57:12;15.10;99.90
4910;DHT22;2470;49.868;8.660;2023-08-07T11:00:00;15.10;99.90
4910;DHT22;2470;49.868;8.660;2023-08-07T11:02:30;15.20;99.90
4910;DHT22;2470;49.868;8.660;2023-08-07T11:04:56;15.30;99.90
4910;DHT22;2470;49.868;8.660;2023-08-07T11:07:25;15.40;99.90
4910;DHT22;2470;49.868;8.660;2023-08-07T11:09:52;15.50;99.90
4910;DHT22;2470;49.868;8.660;2023-08-07T11:12:18;15.50;99.90
4910;DHT22;2470;49.868;8.660;2023-08-07T11:14:44;15.50;99.90
4910;DHT22;2470;49.868;8.660;2023-08-07T11:17:09;15.60;99.90
4910;DHT22;2470;49.868;8.660;2023-08-07T11:19:35;15.50;99.90
4910;DHT22;2470;49.868;8.660;2023-08-07T11:22:01;15.50;99.90
4910;DHT22;2470;49.868;8.660;2023-08-07T11:24:27;15.60;99.90
4910;DHT22;2470;49.868;8.660;2023-08-07T11:26:53;15.60;99.90
4910;DHT22;2470;49.868;8.660;2023-08-07T11:29:20;15.60;99.90
4910;DHT22;2470;49.868;8.660;2023-08-07T11:31:47;15.70;99.90
4910;DHT22;2470;49.868;8.660;2023-08-07T11:34:13;15.80;99.90
4910;DHT22;2470;49.868;8.660;2023-08-07T11:36:42;15.80;99.90
4910;DHT22;2470;49.868;8.660;2023-08-07T11:39:08;15.90;99.90
4910;DHT22;2470;49.868;8.660;2023-08-07T11:41:33;16.00;99.90
4910;DHT22;2470;49.868;8.660;2023-08-07T11:43:59;16.00;99.90
4910;DHT22;2470;49.868;8.660;2023-08-07T11:46:25;15.90;99.90
4910;DHT22;2470;49.868;8.660;2023-08-07T11:48:52;15.90;99.90
4910;DHT22;2470;49.868;8.660;2023-08-07T11:51:20;15.90;99.90
4910;DHT22;2470;49.868;8.660;2023-08-07T11:53:46;15.90;99.90
4910;DHT22;2470;49.868;8.660;2023-08-07T11:56:13;15.90;99.90
4910;DHT22;2470;49.868;8.660;2023-08-07T11:58:44;16.00;99.90
4910;DHT22;2470;49.868;8.660;2023-08-07T12:01:14;16.00;99.90
4910;DHT22;2470;49.868;8.660;2023-08-07T12:04:08;16.00;99.90
4910;DHT22;2470;49.868;8.660;2023-08-07T12:06:35;16.00;99.90
4910;DHT22;2470;49.868;8.660;2023-08-07T12:09:01;16.00;99.90
4910;DHT22;2470;49.868;8.660;2023-08-07T12:11:29;15.90;99.90
4910;DHT22;2470;49.868;8.660;2023-08-07T12:13:54;15.90;99.90
4910;DHT22;2470;49.868;8.660;2023-08-07T12:16:20;15.90;99.90
4910;DHT22;2470;49.868;8.660;2023-08-07T12:18:47;15.90;99.90
4910;DHT22;2470;49.868;8.660;2023-08-07T12:21:21;15.90;99.90
4910;DHT22;2470;49.868;8.660;2023-08-07T12:23:51;15.80;99.90
4910;DHT22;2470;49.868;8.660;2023-08-07T12:26:17;15.70;99.90
4910;DHT22;2470;49.868;8.660;2023-08-07T12:28:43;15.70;99.90
4910;DHT22;2470;49.868;8.660;2023-08-07T12:31:09;15.70;99.90
4910;DHT22;2470;49.868;8.660;2023-08-07T12:33:37;15.70;99.90
4910;DHT22;2470;49.868;8.660;2023-08-07T12:36:02;15.60;99.90
4910;DHT22;2470;49.868;8.660;2023-08-07T12:38:28;15.60;99.90
4910;DHT22;2470;49.868;8.660;2023-08-07T12:40:54;15.50;99.90
4910;DHT22;2470;49.868;8.660;2023-08-07T12:43:19;15.60;99.90
4910;DHT22;2470;49.868;8.660;2023-08-07T12:45:45;15.70;99.90
4910;DHT22;2470;49.868;8.660;2023-08-07T12:48:11;15.80;99.90
4910;DHT22;2470;49.868;8.660;2023-08-07T12:50:36;15.90;99.90
4910;DHT22;2470;49.868;8.660;2023-08-07T12:53:02;16.10;99.90
4910;DHT22;2470;49.868;8.660;2023-08-07T12:55:28;16.50;99.90
4910;DHT22;2470;49.868;8.660;2023-08-07T12:57:55;17.00;99.90
4910;DHT22;2470;49.868;8.660;2023-08-07T13:00:21;17.60;99.90
4910;DHT22;2470;49.868;8.660;2023-08-07T13:02:48;18.10;99.90
4910;DHT22;2470;49.868;8.660;2023-08-07T13:05:15;18.40;99.90
4910;DHT22;2470;49.868;8.660;2023-08-07T13:07:42;18.50;99.90
4910;DHT22;2470;49.868;8.660;2023-08-07T13:10:09;18.50;99.90
4910;DHT22;2470;49.868;8.660;2023-08-07T13:12:36;18.30;99.90
4910;DHT22;2470;49.868;8.660;2023-08-07T13:15:03;18.00;99.90
4910;DHT22;2470;49.868;8.660;2023-08-07T13:17:30;17.70;99.90
4910;DHT22;2470;49.868;8.660;2023-08-07T13:19:56;17.60;99.90
4910;DHT22;2470;49.868;8.660;2023-08-07T13:22:22;17.70;99.90
4910;DHT22;2470;49.868;8.660;2023-08-07T13:24:48;17.90;99.90
4910;DHT22;2470;49.868;8.660;2023-08-07T13:27:13;18.10;99.90
4910;DHT22;2470;49.868;8.660;2023-08-07T13:29:39;18.20;99.90
4910;DHT22;2470;49.868;8.660;2023-08-07T13:32:05;18.40;99.90
4910;DHT22;2470;49.868;8.660;2023-08-07T13:34:35;18.50;99.90
4910;DHT22;2470;49.868;8.660;2023-08-07T13:37:02;18.90;99.90
4910;DHT22;2470;49.868;8.660;2023-08-07T13:39:27;19.50;99.90
4910;DHT22;2470;49.868;8.660;2023-08-07T13:41:53;22.70;99.90
4910;DHT22;2470;49.868;8.660;2023-08-07T13:44:19;26.20;94.50
4910;DHT22;2470;49.868;8.660;2023-08-07T13:46:45;27.90;87.40
4910;DHT22;2470;49.868;8.660;2023-08-07T13:49:13;29.10;79.20
4910;DHT22;2470;49.868;8.660;2023-08-07T13:51:38;28.90;73.30
4910;DHT22;2470;49.868;8.660;2023-08-07T13:54:04;27.20;74.20
4910;DHT22;2470;49.868;8.660;2023-08-07T13:56:29;25.30;77.80
4910;DHT22;2470;49.868;8.660;2023-08-07T13:58:55;23.80;82.90
4910;DHT22;2470;49.868;8.660;2023-08-07T14:01:21;22.60;86.10
4910;DHT22;2470;49.868;8.660;2023-08-07T14:03:46;22.00;89.50
4910;DHT22;2470;49.868;8.660;2023-08-07T14:06:12;21.60;89.90
4910;DHT22;2470;49.868;8.660;2023-08-07T14:08:37;21.10;91.60
4910;DHT22;2470;49.868;8.660;2023-08-07T14:11:02;20.90;92.60
4910;DHT22;2470;49.868;8.660;2023-08-07T14:13:28;20.80;92.40
4910;DHT22;2470;49.868;8.660;2023-08-07T14:15:54;20.60;92.40
4910;DHT22;2470;49.868;8.660;2023-08-07T14:18:19;20.50;92.10
4910;DHT22;2470;49.868;8.660;2023-08-07T14:20:45;20.30;92.90
4910;DHT22;2470;49.868;8.660;2023-08-07T14:23:10;22.20;93.00
4910;DHT22;2470;49.868;8.660;2023-08-07T14:25:36;23.90;86.80
4910;DHT22;2470;49.868;8.660;2023-08-07T14:28:01;26.00;84.50
4910;DHT22;2470;49.868;8.660;2023-08-07T14:30:27;29.10;75.70
4910;DHT22;2470;49.868;8.660;2023-08-07T14:32:52;29.70;68.60
4910;DHT22;2470;49.868;8.660;2023-08-07T14:35:18;28.60;72.30
4910;DHT22;2470;49.868;8.660;2023-08-07T14:37:44;29.30;76.40
4910;DHT22;2470;49.868;8.660;2023-08-07T14:40:12;31.40;75.00
4910;DHT22;2470;49.868;8.660;2023-08-07T14:42:39;33.10;67.20
4910;DHT22;2470;49.868;8.660;2023-08-07T14:45:05;33.10;64.70
4910;DHT22;2470;49.868;8.660;2023-08-07T14:47:31;32.40;64.30
4910;DHT22;2470;49.868;8.660;2023-08-07T14:49:56;33.00;63.10
4910;DHT22;2470;49.868;8.660;2023-08-07T14:52:22;34.40;54.60
4910;DHT22;2470;49.868;8.660;2023-08-07T14:54:47;33.50;51.50
4910;DHT22;2470;49.868;8.660;2023-08-07T14:57:13;34.40;51.60
4910;DHT22;2470;49.868;8.660;2023-08-07T14:59:38;33.70;47.90
4910;DHT22;2470;49.868;8.660;2023-08-07T15:02:04;31.40;49.60
4910;DHT22;2470;49.868;8.660;2023-08-07T15:04:31;29.20;50.90
4910;DHT22;2470;49.868;8.660;2023-08-07T15:06:57;27.10;54.70
4910;DHT22;2470;49.868;8.660;2023-08-07T15:09:22;25.30;57.10
4910;DHT22;2470;49.868;8.660;2023-08-07T15:11:48;24.00;59.30
4910;DHT22;2470;49.868;8.660;2023-08-07T15:14:15;23.30;62.30
4910;DHT22;2470;49.868;8.660;2023-08-07T15:16:40;22.70;64.40
4910;DHT22;2470;49.868;8.660;2023-08-07T15:19:06;22.30;65.60
4910;DHT22;2470;49.868;8.660;2023-08-07T15:21:31;22.00;67.00
4910;DHT22;2470;49.868;8.660;2023-08-07T15:23:57;21.70;68.90
4910;DHT22;2470;49.868;8.660;2023-08-07T15:26:23;21.70;70.20
4910;DHT22;2470;49.868;8.660;2023-08-07T15:28:48;21.70;69.80
4910;DHT22;2470;49.868;8.660;2023-08-07T15:31:14;22.10;69.80
4910;DHT22;2470;49.868;8.660;2023-08-07T15:33:39;22.60;69.70
4910;DHT22;2470;49.868;8.660;2023-08-07T15:36:05;22.90;69.40
4910;DHT22;2470;49.868;8.660;2023-08-07T15:38:30;23.10;69.10
4910;DHT22;2470;49.868;8.660;2023-08-07T15:40:56;22.90;68.00
4910;DHT22;2470;49.868;8.660;2023-08-07T15:43:22;22.50;69.50
4910;DHT22;2470;49.868;8.660;2023-08-07T15:45:50;22.00;70.70
4910;DHT22;2470;49.868;8.660;2023-08-07T15:48:16;21.70;72.20
4910;DHT22;2470;49.868;8.660;2023-08-07T15:50:42;21.40;73.10
4910;DHT22;2470;49.868;8.660;2023-08-07T15:53:08;21.20;73.50
4910;DHT22;2470;49.868;8.660;2023-08-07T15:55:33;21.20;73.70
4910;DHT22;2470;49.868;8.660;2023-08-07T15:58:04;21.20;75.10
4910;DHT22;2470;49.868;8.660;2023-08-07T16:00:31;21.20;76.00
4910;DHT22;2470;49.868;8.660;2023-08-07T16:03:06;21.30;77.00
4910;DHT22;2470;49.868;8.660;2023-08-07T16:05:32;21.50;76.30
4910;DHT22;2470;49.868;8.660;2023-08-07T16:07:58;21.50;75.90
4910;DHT22;2470;49.868;8.660;2023-08-07T16:10:24;21.50;73.50